createdAt,value
2018-09-17T00:00:14.318Z,0
2018-09-17T00:00:55.160Z,0
2018-09-17T00:01:35.939Z,0
2018-09-17T00:02:16.710Z,0
2018-09-17T00:02:57.452Z,0
2018-09-17T00:03:38.214Z,0
2018-09-17T00:04:19.093Z,0
2018-09-17T00:04:59.830Z,0
2018-09-17T00:05:40.552Z,0
2018-09-17T00:06:21.317Z,0
2018-09-17T00:07:02.122Z,0
2018-09-17T00:07:42.891Z,0
2018-09-17T00:08:23.606Z,0
2018-09-17T00:09:04.343Z,0
2018-09-17T00:09:45.205Z,0
2018-09-17T00:10:26.000Z,0
2018-09-17T00:11:06.790Z,0
2018-09-17T00:11:47.543Z,0
2018-09-17T00:12:28.299Z,0
2018-09-17T00:13:09.117Z,0
2018-09-17T00:13:49.902Z,0
2018-09-17T00:14:30.649Z,0
2018-09-17T00:15:11.426Z,0
2018-09-17T00:15:52.243Z,0
2018-09-17T00:16:33.084Z,0
2018-09-17T00:17:13.911Z,0
2018-09-17T00:17:54.641Z,0
2018-09-17T00:18:35.369Z,0
2018-09-17T00:19:16.131Z,0
2018-09-17T00:19:56.938Z,0
2018-09-17T00:20:37.706Z,0
2018-09-17T00:21:18.452Z,0
2018-09-17T00:21:59.202Z,0
2018-09-17T00:22:40.061Z,0
2018-09-17T00:23:20.848Z,0
2018-09-17T00:24:01.632Z,0
2018-09-17T00:24:42.359Z,0
2018-09-17T00:25:23.171Z,0
2018-09-17T00:26:04.001Z,0
2018-09-17T00:26:44.708Z,0
2018-09-17T00:27:25.437Z,0
2018-09-17T00:28:06.168Z,0
2018-09-17T00:28:47.020Z,0
2018-09-17T00:29:27.796Z,0
2018-09-17T00:30:08.487Z,0
2018-09-17T00:30:49.276Z,0
2018-09-17T00:31:30.084Z,0
2018-09-17T00:32:10.923Z,0
2018-09-17T00:32:51.666Z,0
2018-09-17T00:33:32.415Z,0
2018-09-17T00:34:13.156Z,0
2018-09-17T00:34:53.924Z,0
2018-09-17T00:35:34.744Z,0
2018-09-17T00:36:15.492Z,0
2018-09-17T00:36:56.328Z,0
2018-09-17T00:37:37.157Z,0
2018-09-17T00:38:17.926Z,0
2018-09-17T00:38:58.747Z,0
2018-09-17T00:39:39.526Z,0
2018-09-17T00:40:20.228Z,0
2018-09-17T00:41:00.952Z,0
2018-09-17T00:41:41.729Z,0
2018-09-17T00:42:22.552Z,0
2018-09-17T00:43:03.285Z,0
2018-09-17T00:43:44.107Z,0
2018-09-17T00:44:24.894Z,0
2018-09-17T00:45:05.704Z,0
2018-09-17T00:45:46.484Z,0
2018-09-17T00:46:27.190Z,0
2018-09-17T00:47:07.981Z,0
2018-09-17T00:47:48.786Z,0
2018-09-17T00:48:29.483Z,0
2018-09-17T00:49:10.231Z,0
2018-09-17T00:49:50.958Z,0
2018-09-17T00:50:31.775Z,0
2018-09-17T00:51:12.568Z,0
2018-09-17T00:51:53.437Z,0
2018-09-17T00:52:34.222Z,0
2018-09-17T00:53:14.932Z,0
2018-09-17T00:53:55.651Z,0
2018-09-17T00:54:36.421Z,0
2018-09-17T00:55:17.257Z,0
2018-09-17T00:55:57.988Z,0
2018-09-17T00:56:38.776Z,0
2018-09-17T00:57:19.605Z,0
2018-09-17T00:58:00.446Z,0
2018-09-17T00:58:41.221Z,0
2018-09-17T00:59:21.995Z,0
2018-09-17T01:00:02.732Z,0
2018-09-17T01:00:43.475Z,0
2018-09-17T01:01:24.287Z,0
2018-09-17T01:02:05.114Z,0
2018-09-17T01:02:45.906Z,0
2018-09-17T01:03:26.637Z,0
2018-09-17T01:04:07.381Z,0
2018-09-17T01:04:48.178Z,0
2018-09-17T01:05:28.889Z,0
2018-09-17T01:06:09.607Z,0
2018-09-17T01:06:50.328Z,0
2018-09-17T01:07:31.070Z,0
2018-09-17T01:08:11.907Z,0
2018-09-17T01:08:52.743Z,0
2018-09-17T01:09:33.538Z,0
2018-09-17T01:10:14.248Z,0
2018-09-17T01:10:54.977Z,0
2018-09-17T01:11:35.712Z,0
2018-09-17T01:12:16.530Z,0
2018-09-17T01:12:57.286Z,0
2018-09-17T01:13:37.997Z,0
2018-09-17T01:14:18.820Z,0
2018-09-17T01:14:59.605Z,0
2018-09-17T01:15:40.483Z,0
2018-09-17T01:16:21.201Z,0
2018-09-17T01:17:01.904Z,0
2018-09-17T01:17:42.746Z,0
2018-09-17T01:18:23.488Z,0
2018-09-17T01:19:04.195Z,0
2018-09-17T01:19:44.938Z,0
2018-09-17T01:20:25.663Z,0
2018-09-17T01:21:06.535Z,0
2018-09-17T01:21:47.280Z,0
2018-09-17T01:22:27.999Z,0
2018-09-17T01:23:08.794Z,0
2018-09-17T01:23:49.558Z,0
2018-09-17T01:24:30.359Z,0
2018-09-17T01:25:11.111Z,0
2018-09-17T01:25:51.816Z,0
2018-09-17T01:26:32.640Z,0
2018-09-17T01:27:13.386Z,0
2018-09-17T01:27:54.233Z,0
2018-09-17T01:28:35.074Z,0
2018-09-17T01:29:15.878Z,0
2018-09-17T01:29:56.589Z,0
2018-09-17T01:30:37.472Z,0
2018-09-17T01:31:18.134Z,0
2018-09-17T01:31:58.868Z,0
2018-09-17T01:32:39.581Z,0
2018-09-17T01:33:20.332Z,0
2018-09-17T01:34:01.110Z,0
2018-09-17T01:34:41.944Z,0
2018-09-17T01:35:22.702Z,0
2018-09-17T01:36:03.383Z,0
2018-09-17T01:36:44.094Z,0
2018-09-17T01:37:24.828Z,0
2018-09-17T01:38:05.652Z,0
2018-09-17T01:38:46.471Z,0
2018-09-17T01:39:27.232Z,0
2018-09-17T01:40:08.031Z,0
2018-09-17T01:40:48.782Z,0
2018-09-17T01:41:29.570Z,0
2018-09-17T01:42:10.353Z,0
2018-09-17T01:42:51.077Z,0
2018-09-17T01:43:31.784Z,0
2018-09-17T01:44:12.548Z,0
2018-09-17T01:44:53.354Z,0
2018-09-17T01:45:34.214Z,0
2018-09-17T01:46:14.995Z,0
2018-09-17T01:46:55.693Z,0
2018-09-17T01:47:36.447Z,0
2018-09-17T01:48:17.264Z,0
2018-09-17T01:48:57.975Z,0
2018-09-17T01:49:38.714Z,0
2018-09-17T01:50:19.463Z,0
2018-09-17T01:51:00.224Z,0
2018-09-17T01:51:41.012Z,0
2018-09-17T01:52:21.723Z,0
2018-09-17T01:53:02.497Z,0
2018-09-17T01:53:43.289Z,0
2018-09-17T01:54:24.118Z,0
2018-09-17T01:55:04.916Z,0
2018-09-17T01:55:45.644Z,0
2018-09-17T01:56:26.423Z,0
2018-09-17T01:57:07.212Z,0
2018-09-17T01:57:47.989Z,0
2018-09-17T01:58:28.764Z,0
2018-09-17T01:59:09.500Z,0
2018-09-17T01:59:50.340Z,0
2018-09-17T02:00:31.135Z,0
2018-09-17T02:01:11.934Z,0
2018-09-17T02:01:52.688Z,0
2018-09-17T02:02:33.435Z,0
2018-09-17T02:03:14.201Z,0
2018-09-17T02:03:54.982Z,0
2018-09-17T02:04:35.740Z,0
2018-09-17T02:05:16.464Z,0
2018-09-17T02:05:57.249Z,0
2018-09-17T02:06:38.060Z,0
2018-09-17T02:07:18.879Z,0
2018-09-17T02:07:59.684Z,0
2018-09-17T02:08:40.378Z,0
2018-09-17T02:09:21.056Z,0
2018-09-17T02:10:01.827Z,0
2018-09-17T02:10:42.612Z,0
2018-09-17T02:11:23.454Z,0
2018-09-17T02:12:04.269Z,0
2018-09-17T02:12:45.011Z,0
2018-09-17T02:13:25.730Z,0
2018-09-17T02:14:06.599Z,0
2018-09-17T02:14:47.330Z,0
2018-09-17T02:15:28.055Z,0
2018-09-17T02:16:08.798Z,0
2018-09-17T02:16:49.597Z,0
2018-09-17T02:17:30.403Z,0
2018-09-17T02:18:11.216Z,0
2018-09-17T02:18:52.013Z,0
2018-09-17T02:19:32.723Z,0
2018-09-17T02:20:13.468Z,0
2018-09-17T02:20:54.168Z,0
2018-09-17T02:21:35.006Z,0
2018-09-17T02:22:15.817Z,0
2018-09-17T02:22:56.640Z,0
2018-09-17T02:23:37.424Z,0
2018-09-17T02:24:18.229Z,0
2018-09-17T02:24:59.056Z,0
2018-09-17T02:25:39.904Z,0
2018-09-17T02:26:20.610Z,0
2018-09-17T02:27:01.437Z,0
2018-09-17T02:27:42.178Z,0
2018-09-17T02:28:22.933Z,0
2018-09-17T02:29:03.694Z,0
2018-09-17T02:29:44.404Z,0
2018-09-17T02:30:25.245Z,0
2018-09-17T02:31:06.072Z,0
2018-09-17T02:31:46.809Z,0
2018-09-17T02:32:27.613Z,0
2018-09-17T02:33:08.454Z,0
2018-09-17T02:33:49.265Z,0
2018-09-17T02:34:30.026Z,0
2018-09-17T02:35:10.764Z,0
2018-09-17T02:35:51.473Z,0
2018-09-17T02:36:32.358Z,0
2018-09-17T02:37:13.162Z,0
2018-09-17T02:37:53.978Z,0
2018-09-17T02:38:34.746Z,0
2018-09-17T02:39:15.537Z,0
2018-09-17T02:39:56.331Z,0
2018-09-17T02:40:37.091Z,0
2018-09-17T02:41:17.791Z,0
2018-09-17T02:41:58.568Z,0
2018-09-17T02:42:39.289Z,0
2018-09-17T02:43:20.129Z,0
2018-09-17T02:44:00.901Z,0
2018-09-17T02:44:41.655Z,0
2018-09-17T02:45:22.459Z,0
2018-09-17T02:46:03.240Z,0
2018-09-17T02:46:44.022Z,0
2018-09-17T02:47:24.828Z,0
2018-09-17T02:48:05.528Z,0
2018-09-17T02:48:46.389Z,0
2018-09-17T02:49:27.115Z,0
2018-09-17T02:50:07.884Z,0
2018-09-17T02:50:48.616Z,0
2018-09-17T02:51:29.372Z,0
2018-09-17T02:52:10.168Z,0
2018-09-17T02:52:50.965Z,0
2018-09-17T02:53:31.886Z,0
2018-09-17T02:54:12.666Z,0
2018-09-17T02:54:53.437Z,0
2018-09-17T02:55:34.163Z,0
2018-09-17T02:56:14.961Z,0
2018-09-17T02:56:55.703Z,0
2018-09-17T02:57:36.452Z,0
2018-09-17T02:58:17.214Z,0
2018-09-17T02:58:58.032Z,0
2018-09-17T02:59:38.871Z,0
2018-09-17T03:00:19.631Z,0
2018-09-17T03:01:00.391Z,0
2018-09-17T03:01:41.186Z,0
2018-09-17T03:02:22.011Z,0
2018-09-17T03:03:02.773Z,0
2018-09-17T03:03:43.558Z,0
2018-09-17T03:04:24.286Z,0
2018-09-17T03:05:05.079Z,0
2018-09-17T03:05:45.847Z,0
2018-09-17T03:06:26.599Z,0
2018-09-17T03:07:07.421Z,0
2018-09-17T03:07:48.300Z,0
2018-09-17T03:08:29.098Z,0
2018-09-17T03:09:09.918Z,0
2018-09-17T03:09:50.704Z,0
2018-09-17T03:10:31.447Z,0
2018-09-17T03:11:12.188Z,0
2018-09-17T03:11:52.991Z,0
2018-09-17T03:12:33.876Z,0
2018-09-17T03:13:14.702Z,0
2018-09-17T03:13:55.441Z,0
2018-09-17T03:14:36.225Z,0
2018-09-17T03:15:17.085Z,0
2018-09-17T03:15:57.800Z,0
2018-09-17T03:16:38.507Z,0
2018-09-17T03:17:19.279Z,0
2018-09-17T03:18:00.081Z,0
2018-09-17T03:18:40.911Z,0
2018-09-17T03:19:21.795Z,0
2018-09-17T03:20:02.537Z,0
2018-09-17T03:20:43.300Z,0
2018-09-17T03:21:24.084Z,0
2018-09-17T03:22:04.817Z,0
2018-09-17T03:22:45.676Z,0
2018-09-17T03:23:26.421Z,0
2018-09-17T03:24:07.154Z,0
2018-09-17T03:24:47.963Z,0
2018-09-17T03:25:28.745Z,0
2018-09-17T03:26:09.578Z,0
2018-09-17T03:26:50.298Z,0
2018-09-17T03:27:31.002Z,0
2018-09-17T03:28:11.783Z,0
2018-09-17T03:28:52.599Z,0
2018-09-17T03:29:33.375Z,0
2018-09-17T03:30:14.252Z,0
2018-09-17T03:30:55.016Z,0
2018-09-17T03:31:35.764Z,0
2018-09-17T03:32:16.630Z,0
2018-09-17T03:32:57.387Z,0
2018-09-17T03:33:38.134Z,0
2018-09-17T03:34:18.852Z,0
2018-09-17T03:34:59.591Z,0
2018-09-17T03:35:40.410Z,0
2018-09-17T03:36:21.215Z,0
2018-09-17T03:37:02.030Z,0
2018-09-17T03:37:42.866Z,0
2018-09-17T03:38:23.683Z,0
2018-09-17T03:39:04.516Z,0
2018-09-17T03:39:45.313Z,0
2018-09-17T03:40:26.053Z,0
2018-09-17T03:41:06.864Z,0
2018-09-17T03:41:47.655Z,0
2018-09-17T03:42:28.437Z,0
2018-09-17T03:43:09.154Z,0
2018-09-17T03:43:49.948Z,0
2018-09-17T03:44:30.824Z,0
2018-09-17T03:45:11.639Z,0
2018-09-17T03:45:52.460Z,0
2018-09-17T03:46:33.242Z,0
2018-09-17T03:47:13.894Z,0
2018-09-17T03:47:54.613Z,0
2018-09-17T03:48:35.449Z,0
2018-09-17T03:49:16.215Z,0
2018-09-17T03:49:56.941Z,0
2018-09-17T03:50:37.723Z,0
2018-09-17T03:51:18.521Z,0
2018-09-17T03:51:59.342Z,0
2018-09-17T03:52:40.152Z,0
2018-09-17T03:53:20.901Z,0
2018-09-17T03:54:01.627Z,0
2018-09-17T03:54:42.398Z,0
2018-09-17T03:55:23.268Z,0
2018-09-17T03:56:04.029Z,0
2018-09-17T03:56:44.831Z,0
2018-09-17T03:57:25.570Z,0
2018-09-17T03:58:06.385Z,0
2018-09-17T03:58:47.252Z,0
2018-09-17T03:59:28.002Z,0
2018-09-17T04:00:08.723Z,0
2018-09-17T04:00:49.445Z,0
2018-09-17T04:01:30.232Z,0
2018-09-17T04:02:11.069Z,0
2018-09-17T04:02:51.888Z,0
2018-09-17T04:03:32.672Z,0
2018-09-17T04:04:13.426Z,0
2018-09-17T04:04:54.179Z,0
2018-09-17T04:05:34.929Z,0
2018-09-17T04:06:15.767Z,0
2018-09-17T04:06:56.490Z,0
2018-09-17T04:07:37.319Z,0
2018-09-17T04:08:18.186Z,0
2018-09-17T04:08:58.946Z,0
2018-09-17T04:09:39.785Z,0
2018-09-17T04:10:20.510Z,0
2018-09-17T04:11:01.265Z,0
2018-09-17T04:11:42.135Z,0
2018-09-17T04:12:22.858Z,0
2018-09-17T04:13:03.612Z,0
2018-09-17T04:13:44.339Z,0
2018-09-17T04:14:25.122Z,0
2018-09-17T04:15:05.926Z,0
2018-09-17T04:15:46.662Z,0
2018-09-17T04:16:27.422Z,0
2018-09-17T04:17:08.243Z,0
2018-09-17T04:17:49.066Z,0
2018-09-17T04:18:29.880Z,0
2018-09-17T04:19:10.633Z,0
2018-09-17T04:19:51.310Z,0
2018-09-17T04:20:32.085Z,0
2018-09-17T04:21:12.837Z,0
2018-09-17T04:21:53.674Z,0
2018-09-17T04:22:34.492Z,0
2018-09-17T04:23:15.201Z,0
2018-09-17T04:23:55.981Z,0
2018-09-17T04:24:36.778Z,0
2018-09-17T04:25:17.546Z,0
2018-09-17T04:25:58.283Z,0
2018-09-17T04:26:39.061Z,0
2018-09-17T04:27:19.771Z,0
2018-09-17T04:28:00.570Z,0
2018-09-17T04:28:41.343Z,0
2018-09-17T04:29:22.152Z,0
2018-09-17T04:30:02.889Z,0
2018-09-17T04:30:43.584Z,0
2018-09-17T04:31:24.387Z,0
2018-09-17T04:32:05.125Z,0
2018-09-17T04:32:45.972Z,0
2018-09-17T04:33:26.711Z,0
2018-09-17T04:34:07.473Z,0
2018-09-17T04:34:48.303Z,0
2018-09-17T04:35:29.086Z,0
2018-09-17T04:36:09.832Z,0
2018-09-17T04:36:50.571Z,0
2018-09-17T04:37:31.314Z,0
2018-09-17T04:38:12.044Z,0
2018-09-17T04:38:52.848Z,0
2018-09-17T04:39:33.641Z,0
2018-09-17T04:40:14.462Z,0
2018-09-17T04:40:55.205Z,0
2018-09-17T04:41:35.965Z,0
2018-09-17T04:42:16.807Z,0
2018-09-17T04:42:57.597Z,0
2018-09-17T04:43:38.319Z,0
2018-09-17T04:44:19.060Z,0
2018-09-17T04:44:59.860Z,0
2018-09-17T04:45:40.657Z,0
2018-09-17T04:46:21.382Z,0
2018-09-17T04:47:02.170Z,0
2018-09-17T04:47:43.006Z,0
2018-09-17T04:48:23.769Z,0
2018-09-17T04:49:04.575Z,0
2018-09-17T04:49:45.312Z,0
2018-09-17T04:50:26.070Z,0
2018-09-17T04:51:06.899Z,0
2018-09-17T04:51:47.642Z,0
2018-09-17T04:52:28.385Z,0
2018-09-17T04:53:09.093Z,0
2018-09-17T04:53:49.847Z,0
2018-09-17T04:54:30.685Z,0
2018-09-17T04:55:11.546Z,0
2018-09-17T04:55:52.325Z,0
2018-09-17T04:56:33.060Z,0
2018-09-17T04:57:13.853Z,0
2018-09-17T04:57:54.576Z,0
2018-09-17T04:58:35.366Z,0
2018-09-17T04:59:16.095Z,0
2018-09-17T04:59:56.885Z,0
2018-09-17T05:00:37.736Z,0
2018-09-17T05:01:18.490Z,0
2018-09-17T05:01:59.297Z,0
2018-09-17T05:02:40.183Z,0
2018-09-17T05:03:21.014Z,0
2018-09-17T05:04:01.822Z,0
2018-09-17T05:04:42.630Z,0
2018-09-17T05:05:23.407Z,0
2018-09-17T05:06:04.164Z,0
2018-09-17T05:06:45.034Z,0
2018-09-17T05:07:25.946Z,0
2018-09-17T05:08:06.635Z,0
2018-09-17T05:08:47.388Z,0
2018-09-17T05:09:28.261Z,0
2018-09-17T05:10:09.035Z,0
2018-09-17T05:10:49.886Z,0
2018-09-17T05:11:30.631Z,0
2018-09-17T05:12:11.441Z,0
2018-09-17T05:12:52.233Z,0
2018-09-17T05:13:33.025Z,0
2018-09-17T05:14:13.791Z,0
2018-09-17T05:14:54.613Z,0
2018-09-17T05:15:35.388Z,0
2018-09-17T05:16:16.196Z,0
2018-09-17T05:16:57.000Z,0
2018-09-17T05:17:37.809Z,0
2018-09-17T05:18:18.547Z,0
2018-09-17T05:18:59.263Z,0
2018-09-17T05:19:40.040Z,0
2018-09-17T05:20:20.902Z,0
2018-09-17T05:21:01.641Z,0
2018-09-17T05:21:42.390Z,0
2018-09-17T05:22:23.199Z,0
2018-09-17T05:23:04.106Z,0
2018-09-17T05:23:44.919Z,0
2018-09-17T05:24:25.638Z,0
2018-09-17T05:25:06.389Z,0
2018-09-17T05:25:47.253Z,0
2018-09-17T05:26:27.983Z,0
2018-09-17T05:27:08.711Z,0
2018-09-17T05:27:49.531Z,0
2018-09-17T05:28:30.282Z,0
2018-09-17T05:29:11.125Z,0
2018-09-17T05:29:51.907Z,0
2018-09-17T05:30:32.767Z,0
2018-09-17T05:31:13.502Z,0
2018-09-17T05:31:54.185Z,0
2018-09-17T05:32:34.932Z,0
2018-09-17T05:33:15.717Z,0
2018-09-17T05:33:56.498Z,0
2018-09-17T05:34:37.231Z,0
2018-09-17T05:35:18.061Z,0
2018-09-17T05:35:58.869Z,0
2018-09-17T05:36:39.687Z,0
2018-09-17T05:37:20.424Z,0
2018-09-17T05:38:01.174Z,0
2018-09-17T05:38:41.903Z,0
2018-09-17T05:39:22.694Z,0
2018-09-17T05:40:03.518Z,0
2018-09-17T05:40:44.284Z,0
2018-09-17T05:41:25.081Z,0
2018-09-17T05:42:05.821Z,0
2018-09-17T05:42:46.600Z,0
2018-09-17T05:43:27.442Z,0
2018-09-17T05:44:08.191Z,0
2018-09-17T05:44:48.960Z,0
2018-09-17T05:45:29.763Z,0
2018-09-17T05:46:10.567Z,0
2018-09-17T05:46:51.386Z,0
2018-09-17T05:47:32.220Z,0
2018-09-17T05:48:12.997Z,0
2018-09-17T05:48:53.740Z,0
2018-09-17T05:49:34.489Z,0
2018-09-17T05:50:15.344Z,0
2018-09-17T05:50:56.204Z,0
2018-09-17T05:51:36.960Z,0
2018-09-17T05:52:17.708Z,0
2018-09-17T05:52:58.560Z,0
2018-09-17T05:53:39.425Z,0
2018-09-17T05:54:20.194Z,0
2018-09-17T05:55:00.953Z,0
2018-09-17T05:55:41.761Z,0
2018-09-17T05:56:22.557Z,0
2018-09-17T05:57:03.271Z,0
2018-09-17T05:57:43.970Z,0
2018-09-17T05:58:24.700Z,0
2018-09-17T05:59:05.532Z,0
2018-09-17T05:59:46.348Z,0
2018-09-17T06:00:27.048Z,0
2018-09-17T06:01:07.821Z,0
2018-09-17T06:01:48.643Z,0
2018-09-17T06:02:29.414Z,0
2018-09-17T06:03:10.258Z,0
2018-09-17T06:03:50.980Z,0
2018-09-17T06:04:31.725Z,0
2018-09-17T06:05:12.481Z,0
2018-09-17T06:05:53.293Z,0
2018-09-17T06:06:34.085Z,0
2018-09-17T06:07:14.954Z,0
2018-09-17T06:07:55.674Z,0
2018-09-17T06:08:36.457Z,0
2018-09-17T06:09:17.318Z,0
2018-09-17T06:09:58.059Z,0
2018-09-17T06:10:38.788Z,0
2018-09-17T06:11:19.517Z,0
2018-09-17T06:12:00.260Z,0
2018-09-17T06:12:41.076Z,0
2018-09-17T06:13:21.856Z,0
2018-09-17T06:14:02.654Z,0
2018-09-17T06:14:43.408Z,0
2018-09-17T06:15:24.129Z,0
2018-09-17T06:16:04.922Z,0
2018-09-17T06:16:45.735Z,0
2018-09-17T06:17:26.500Z,0
2018-09-17T06:18:07.220Z,0
2018-09-17T06:18:48.035Z,0
2018-09-17T06:19:28.859Z,0
2018-09-17T06:20:09.652Z,0
2018-09-17T06:20:50.384Z,0
2018-09-17T06:21:31.105Z,0
2018-09-17T06:22:11.838Z,0
2018-09-17T06:22:52.596Z,0
2018-09-17T06:23:33.432Z,0
2018-09-17T06:24:14.282Z,0
2018-09-17T06:24:55.137Z,0
2018-09-17T06:25:35.882Z,0
2018-09-17T06:26:16.642Z,5
2018-09-17T06:26:57.410Z,5
2018-09-17T06:27:38.196Z,5
2018-09-17T06:28:18.978Z,5
2018-09-17T06:28:59.699Z,5
2018-09-17T06:29:40.518Z,5
2018-09-17T06:30:21.259Z,5
2018-09-17T06:31:02.059Z,5
2018-09-17T06:31:42.800Z,5
2018-09-17T06:32:23.643Z,5
2018-09-17T06:33:04.477Z,5
2018-09-17T06:33:45.290Z,5
2018-09-17T06:34:26.037Z,5
2018-09-17T06:35:06.826Z,5
2018-09-17T06:35:47.637Z,5
2018-09-17T06:36:28.364Z,10
2018-09-17T06:37:09.112Z,10
2018-09-17T06:37:49.913Z,5
2018-09-17T06:38:30.733Z,5
2018-09-17T06:39:11.522Z,10
2018-09-17T06:39:52.377Z,5
2018-09-17T06:40:33.098Z,10
2018-09-17T06:41:13.904Z,35
2018-09-17T06:41:54.696Z,40
2018-09-17T06:42:35.477Z,45
2018-09-17T06:43:16.285Z,60
2018-09-17T06:43:56.994Z,75
2018-09-17T06:44:37.771Z,90
2018-09-17T06:45:18.606Z,40
2018-09-17T06:45:59.476Z,25
2018-09-17T06:46:40.270Z,10
2018-09-17T06:47:20.981Z,10
2018-09-17T06:48:01.753Z,10
2018-09-17T06:48:42.550Z,15
2018-09-17T06:49:23.393Z,30
2018-09-17T06:50:04.167Z,15
2018-09-17T06:50:45.031Z,10
2018-09-17T06:51:25.767Z,45
2018-09-17T06:52:06.493Z,100
2018-09-17T06:52:47.319Z,105
2018-09-17T06:53:28.069Z,100
2018-09-17T06:54:08.869Z,95
2018-09-17T06:54:49.594Z,95
2018-09-17T06:55:30.450Z,90
2018-09-17T06:56:11.262Z,75
2018-09-17T06:56:52.115Z,15
2018-09-17T06:57:32.863Z,20
2018-09-17T06:58:13.621Z,100
2018-09-17T06:58:54.306Z,110
2018-09-17T06:59:35.030Z,110
2018-09-17T07:00:15.924Z,115
2018-09-17T07:00:56.654Z,115
2018-09-17T07:01:37.386Z,110
2018-09-17T07:02:18.232Z,115
2018-09-17T07:02:59.040Z,125
2018-09-17T07:03:39.849Z,125
2018-09-17T07:04:20.625Z,115
2018-09-17T07:05:01.433Z,110
2018-09-17T07:05:42.253Z,105
2018-09-17T07:06:23.037Z,105
2018-09-17T07:07:03.780Z,105
2018-09-17T07:07:44.550Z,85
2018-09-17T07:08:25.352Z,65
2018-09-17T07:09:06.191Z,40
2018-09-17T07:09:46.996Z,25
2018-09-17T07:10:27.744Z,20
2018-09-17T07:11:08.558Z,20
2018-09-17T07:11:49.300Z,20
2018-09-17T07:12:30.183Z,20
2018-09-17T07:13:10.882Z,20
2018-09-17T07:13:51.574Z,20
2018-09-17T07:14:32.304Z,20
2018-09-17T07:15:13.212Z,20
2018-09-17T07:15:54.040Z,20
2018-09-17T07:16:34.896Z,20
2018-09-17T07:17:15.652Z,20
2018-09-17T07:17:56.423Z,20
2018-09-17T07:18:37.229Z,10
2018-09-17T07:19:18.067Z,20
2018-09-17T07:19:58.817Z,20
2018-09-17T07:20:39.569Z,20
2018-09-17T07:21:20.340Z,20
2018-09-17T07:22:01.230Z,15
2018-09-17T07:22:41.992Z,15
2018-09-17T07:23:22.779Z,15
2018-09-17T07:24:03.558Z,15
2018-09-17T07:24:44.399Z,15
2018-09-17T07:25:25.243Z,20
2018-09-17T07:26:06.012Z,20
2018-09-17T07:26:46.733Z,20
2018-09-17T07:27:27.533Z,15
2018-09-17T07:28:08.336Z,15
2018-09-17T07:28:49.139Z,20
2018-09-17T07:29:29.930Z,20
2018-09-17T07:30:10.800Z,15
2018-09-17T07:30:51.661Z,15
2018-09-17T07:31:32.455Z,15
2018-09-17T07:32:13.279Z,15
2018-09-17T07:32:54.008Z,15
2018-09-17T07:33:34.756Z,15
2018-09-17T07:34:15.521Z,10
2018-09-17T07:34:56.298Z,10
2018-09-17T07:35:37.071Z,10
2018-09-17T07:36:17.872Z,10
2018-09-17T07:36:58.618Z,5
2018-09-17T07:37:39.470Z,5
2018-09-17T07:38:20.239Z,5
2018-09-17T07:39:01.044Z,5
2018-09-17T07:39:41.752Z,5
2018-09-17T07:40:22.542Z,5
2018-09-17T07:41:03.364Z,5
2018-09-17T07:41:44.130Z,5
2018-09-17T07:42:24.873Z,5
2018-09-17T07:43:05.639Z,5
2018-09-17T07:43:46.434Z,10
2018-09-17T07:44:27.213Z,5
2018-09-17T07:45:07.913Z,10
2018-09-17T07:45:48.686Z,10
2018-09-17T07:46:29.571Z,10
2018-09-17T07:47:10.371Z,10
2018-09-17T07:47:51.181Z,10
2018-09-17T07:48:31.818Z,10
2018-09-17T07:49:12.563Z,10
2018-09-17T07:49:53.339Z,10
2018-09-17T07:50:34.194Z,10
2018-09-17T07:51:14.982Z,10
2018-09-17T07:51:55.862Z,10
2018-09-17T07:52:36.582Z,10
2018-09-17T07:53:17.427Z,10
2018-09-17T07:53:58.183Z,10
2018-09-17T07:54:38.925Z,10
2018-09-17T07:55:19.646Z,10
2018-09-17T07:56:00.412Z,10
2018-09-17T07:56:41.231Z,10
2018-09-17T07:57:22.072Z,10
2018-09-17T07:58:02.911Z,10
2018-09-17T07:58:43.685Z,10
2018-09-17T07:59:24.478Z,10
2018-09-17T08:00:05.241Z,10
2018-09-17T08:00:45.970Z,10
2018-09-17T08:01:26.840Z,10
2018-09-17T08:02:07.580Z,10
2018-09-17T08:02:48.402Z,10
2018-09-17T08:03:29.184Z,10
2018-09-17T08:04:09.940Z,10
2018-09-17T08:04:50.780Z,10
2018-09-17T08:05:31.580Z,10
2018-09-17T08:06:12.363Z,10
2018-09-17T08:06:53.084Z,10
2018-09-17T08:07:33.895Z,10
2018-09-17T08:08:14.724Z,10
2018-09-17T08:08:55.554Z,10
2018-09-17T08:09:36.405Z,10
2018-09-17T08:10:17.134Z,10
2018-09-17T08:10:57.900Z,10
2018-09-17T08:11:38.712Z,10
2018-09-17T08:12:19.457Z,10
2018-09-17T08:13:00.249Z,10
2018-09-17T08:13:41.029Z,10
2018-09-17T08:14:21.869Z,10
2018-09-17T08:15:02.596Z,10
2018-09-17T08:15:43.362Z,10
2018-09-17T08:16:24.121Z,10
2018-09-17T08:17:04.972Z,5
2018-09-17T08:17:45.774Z,5
2018-09-17T08:18:26.487Z,5
2018-09-17T08:19:07.297Z,5
2018-09-17T08:19:48.198Z,5
2018-09-17T08:20:28.841Z,10
2018-09-17T08:21:09.603Z,10
2018-09-17T08:21:50.408Z,10
2018-09-17T08:22:31.221Z,5
2018-09-17T08:23:12.056Z,5
2018-09-17T08:23:52.890Z,5
2018-09-17T08:24:33.706Z,5
2018-09-17T08:25:14.448Z,5
2018-09-17T08:25:55.199Z,5
2018-09-17T08:26:35.929Z,5
2018-09-17T08:27:16.727Z,5
2018-09-17T08:27:57.496Z,5
2018-09-17T08:28:38.208Z,5
2018-09-17T08:29:19.066Z,5
2018-09-17T08:29:59.864Z,10
2018-09-17T08:30:40.721Z,10
2018-09-17T08:31:21.497Z,10
2018-09-17T08:32:02.158Z,10
2018-09-17T08:32:42.911Z,10
2018-09-17T08:33:23.721Z,5
2018-09-17T08:34:04.531Z,5
2018-09-17T08:34:45.367Z,5
2018-09-17T08:35:26.138Z,5
2018-09-17T08:36:06.894Z,10
2018-09-17T08:36:47.693Z,10
2018-09-17T08:37:28.503Z,5
2018-09-17T08:38:09.248Z,10
2018-09-17T08:38:50.000Z,10
2018-09-17T08:39:30.750Z,10
2018-09-17T08:40:11.558Z,10
2018-09-17T08:40:52.424Z,10
2018-09-17T08:41:33.192Z,10
2018-09-17T08:42:13.913Z,10
2018-09-17T08:42:54.690Z,10
2018-09-17T08:43:35.402Z,10
2018-09-17T08:44:16.285Z,10
2018-09-17T08:44:57.045Z,10
2018-09-17T08:45:37.838Z,10
2018-09-17T08:46:18.568Z,10
2018-09-17T08:46:59.368Z,5
2018-09-17T08:47:40.236Z,5
2018-09-17T08:48:21.002Z,5
2018-09-17T08:49:01.743Z,5
2018-09-17T08:49:42.554Z,10
2018-09-17T08:50:23.302Z,10
2018-09-17T08:51:04.026Z,10
2018-09-17T08:51:44.744Z,10
2018-09-17T08:52:25.481Z,10
2018-09-17T08:53:06.335Z,10
2018-09-17T08:53:47.060Z,10
2018-09-17T08:54:27.802Z,10
2018-09-17T08:55:08.640Z,10
2018-09-17T08:55:49.414Z,10
2018-09-17T08:56:30.249Z,10
2018-09-17T08:57:11.032Z,10
2018-09-17T08:57:51.766Z,10
2018-09-17T08:58:32.453Z,10
2018-09-17T08:59:13.316Z,10
2018-09-17T08:59:54.127Z,10
2018-09-17T09:00:34.971Z,10
2018-09-17T09:01:15.748Z,10
2018-09-17T09:01:56.447Z,10
2018-09-17T09:02:37.263Z,10
2018-09-17T09:03:18.077Z,10
2018-09-17T09:03:58.856Z,10
2018-09-17T09:04:39.541Z,10
2018-09-17T09:05:20.241Z,10
2018-09-17T09:06:01.023Z,10
2018-09-17T09:06:41.789Z,10
2018-09-17T09:07:22.564Z,10
2018-09-17T09:08:03.364Z,10
2018-09-17T09:08:44.140Z,10
2018-09-17T09:09:24.844Z,10
2018-09-17T09:10:05.609Z,10
2018-09-17T09:10:46.415Z,10
2018-09-17T09:11:27.157Z,10
2018-09-17T09:12:07.924Z,10
2018-09-17T09:12:48.782Z,10
2018-09-17T09:13:29.645Z,10
2018-09-17T09:14:10.466Z,10
2018-09-17T09:14:51.222Z,10
2018-09-17T09:15:31.974Z,10
2018-09-17T09:16:12.693Z,10
2018-09-17T09:16:53.517Z,10
2018-09-17T09:17:34.462Z,10
2018-09-17T09:18:15.185Z,10
2018-09-17T09:18:55.997Z,10
2018-09-17T09:19:36.822Z,10
2018-09-17T09:20:17.583Z,10
2018-09-17T09:20:58.329Z,5
2018-09-17T09:21:39.111Z,5
2018-09-17T09:22:19.887Z,5
2018-09-17T09:23:00.624Z,5
2018-09-17T09:23:41.421Z,5
2018-09-17T09:24:22.182Z,10
2018-09-17T09:25:02.929Z,10
2018-09-17T09:25:43.729Z,10
2018-09-17T09:26:24.571Z,10
2018-09-17T09:27:05.398Z,10
2018-09-17T09:27:46.175Z,10
2018-09-17T09:28:26.889Z,10
2018-09-17T09:29:07.733Z,10
2018-09-17T09:29:48.564Z,10
2018-09-17T09:30:29.305Z,10
2018-09-17T09:31:10.046Z,10
2018-09-17T09:31:50.829Z,5
2018-09-17T09:32:31.637Z,10
2018-09-17T09:33:12.462Z,10
2018-09-17T09:33:53.303Z,10
2018-09-17T09:34:34.021Z,10
2018-09-17T09:35:14.774Z,10
2018-09-17T09:35:55.525Z,10
2018-09-17T09:36:36.442Z,10
2018-09-17T09:37:17.183Z,10
2018-09-17T09:37:57.970Z,10
2018-09-17T09:38:38.804Z,10
2018-09-17T09:39:19.589Z,10
2018-09-17T09:40:00.451Z,10
2018-09-17T09:40:41.208Z,10
2018-09-17T09:41:21.957Z,10
2018-09-17T09:42:02.843Z,10
2018-09-17T09:42:43.634Z,10
2018-09-17T09:43:24.325Z,10
2018-09-17T09:44:05.126Z,10
2018-09-17T09:44:45.857Z,10
2018-09-17T09:45:26.714Z,10
2018-09-17T09:46:07.487Z,10
2018-09-17T09:46:48.208Z,10
2018-09-17T09:47:29.024Z,10
2018-09-17T09:48:09.842Z,10
2018-09-17T09:48:50.706Z,10
2018-09-17T09:49:31.449Z,10
2018-09-17T09:50:12.136Z,10
2018-09-17T09:50:52.890Z,10
2018-09-17T09:51:33.682Z,10
2018-09-17T09:52:14.526Z,10
2018-09-17T09:52:55.358Z,10
2018-09-17T09:53:36.103Z,10
2018-09-17T09:54:16.814Z,10
2018-09-17T09:54:57.635Z,10
2018-09-17T09:55:38.470Z,10
2018-09-17T09:56:19.374Z,10